Terminal Aerodrome Forecast
Issued by NWS Wilmington, OH

Current Version | Previous Version | Graphics & Text | Print | Product List | Glossary On
Versions: 1 2 3 4 5 6 7 8 9 10 11 12 13 14 15 16 17 18 19 20
000
FTUS41 KILN 152059 AAA
TAFILN
TAF AMD
KILN 152059Z 1521/1618 24015G22KT P6SM OVC029
     FM152300 24010KT P6SM BKN040
     FM160300 22010KT P6SM SCT050 BKN100
     FM161400 22012G18KT P6SM SKC=

USA.gov is the U.S. government's official web portal to all federal, state and local government web resources and services.